Time;durP1;ratioP1;P1;durP2;ratioP2;P2;SDS_P1;SDS_P2;PMS_P1;PMS_P2;Temp;Humidity;BMP_temperature;BMP_pressure;BME280_temperature;BME280_humidity;BME280_pressure;Samples;Min_cycle;Max_cycle;Signal;HPM_P1;HPM_P2
2023/08/08 00:00:57;;;;;;;6.88;6.38;;;21.20;99.90;;;;;;5228806;28;20078;-74
2023/08/08 00:03:28;;;;;;;7.22;6.63;;;21.20;99.90;;;;;;5227895;28;20037;-73
2023/08/08 00:05:58;;;;;;;6.63;6.03;;;21.20;99.90;;;;;;5227898;28;20070;-74
2023/08/08 00:08:29;;;;;;;7.45;6.75;;;21.20;99.90;;;;;;5227747;28;20103;-74
2023/08/08 00:11:00;;;;;;;7.47;6.78;;;21.20;99.90;;;;;;5228843;28;20060;-73
2023/08/08 00:13:31;;;;;;;7.38;6.68;;;21.00;99.90;;;;;;5229248;28;20112;-74
2023/08/08 00:16:02;;;;;;;7.60;6.90;;;21.10;99.90;;;;;;5228916;28;20488;-74
2023/08/08 00:18:33;;;;;;;7.65;7.00;;;21.00;99.90;;;;;;5229061;28;20044;-74
2023/08/08 00:21:04;;;;;;;7.47;6.88;;;21.10;99.90;;;;;;5228982;28;20067;-73
2023/08/08 00:23:35;;;;;;;7.97;7.28;;;21.00;99.90;;;;;;5227536;28;20037;-73
2023/08/08 00:26:05;;;;;;;17.23;7.28;;;21.00;99.90;;;;;;5228857;28;20028;-73
2023/08/08 00:28:37;;;;;;;7.38;6.75;;;20.90;99.90;;;;;;5228899;28;20032;-73
2023/08/08 00:31:08;;;;;;;7.40;6.80;;;20.90;99.90;;;;;;5228803;28;20057;-80
2023/08/08 00:33:38;;;;;;;10.57;7.15;;;20.90;99.90;;;;;;5228676;28;20071;-73
2023/08/08 00:36:09;;;;;;;7.47;6.80;;;20.90;99.90;;;;;;5228765;28;20048;-74
2023/08/08 00:38:40;;;;;;;7.03;6.32;;;20.90;99.90;;;;;;5228454;28;20021;-80
2023/08/08 00:41:11;;;;;;;7.47;6.57;;;21.00;99.90;;;;;;5228378;28;20479;-73
2023/08/08 00:43:43;;;;;;;7.40;6.70;;;20.90;99.90;;;;;;5228391;28;20033;-73
2023/08/08 00:46:14;;;;;;;7.10;6.50;;;20.80;99.90;;;;;;5228128;28;20029;-74
2023/08/08 00:48:45;;;;;;;7.38;6.65;;;20.80;99.90;;;;;;5228333;28;20032;-73
2023/08/08 00:51:17;;;;;;;6.68;6.07;;;20.80;99.90;;;;;;5226627;28;20024;-74
2023/08/08 00:53:49;;;;;;;6.72;6.13;;;20.90;99.90;;;;;;5227504;28;20017;-73
2023/08/08 00:56:20;;;;;;;8.57;6.97;;;20.90;99.90;;;;;;5227683;28;20037;-75
2023/08/08 00:58:51;;;;;;;6.75;6.05;;;20.90;99.90;;;;;;5227055;28;20060;-74
2023/08/08 01:01:22;;;;;;;8.30;6.65;;;20.80;99.90;;;;;;5225456;28;20032;-74
2023/08/08 01:03:53;;;;;;;7.07;6.57;;;20.80;99.90;;;;;;5226747;28;20036;-74
2023/08/08 01:06:37;;;;;;;7.25;6.43;;;20.70;99.90;;;;;;5226588;28;20441;-78
2023/08/08 01:09:34;;;;;;;6.88;6.18;;;20.70;99.90;;;;;;5225536;28;20021;-74
2023/08/08 01:12:11;;;;;;;7.97;6.40;;;20.60;99.90;;;;;;5225688;28;20487;-73
2023/08/08 01:14:43;;;;;;;7.35;6.75;;;20.70;99.90;;;;;;5227937;28;20033;-76
2023/08/08 01:17:15;;;;;;;6.90;6.22;;;20.70;99.90;;;;;;5227572;28;20075;-80
2023/08/08 01:19:46;;;;;;;7.50;6.78;;;20.80;99.90;;;;;;5227727;28;20031;-75
2023/08/08 01:22:35;;;;;;;7.40;6.65;;;20.80;99.90;;;;;;5227498;28;20041;-73
2023/08/08 01:25:08;;;;;;;6.50;6.00;;;20.70;99.90;;;;;;5227606;28;20029;-74
2023/08/08 01:27:39;;;;;;;7.45;6.72;;;20.70;99.90;;;;;;5227487;28;20029;-80
2023/08/08 01:30:11;;;;;;;7.68;6.35;;;20.80;99.90;;;;;;5227469;28;20095;-73
2023/08/08 01:32:41;;;;;;;10.10;5.90;;;20.70;99.90;;;;;;5227645;28;20074;-73
2023/08/08 01:35:12;;;;;;;6.57;6.05;;;20.70;99.90;;;;;;5226236;28;20632;-73
2023/08/08 01:37:52;;;;;;;6.55;5.88;;;20.70;99.90;;;;;;5227325;28;20021;-73
2023/08/08 01:40:25;;;;;;;6.65;5.82;;;20.70;99.90;;;;;;5227411;28;20104;-74
2023/08/08 01:42:56;;;;;;;6.97;6.38;;;20.70;99.90;;;;;;5227230;28;20498;-74
2023/08/08 01:45:27;;;;;;;6.35;5.85;;;20.70;99.90;;;;;;5227149;28;20024;-73
2023/08/08 01:47:58;;;;;;;6.75;6.00;;;20.50;99.90;;;;;;5226502;28;20546;-74
2023/08/08 01:50:29;;;;;;;6.82;6.32;;;20.50;99.90;;;;;;5226491;28;20512;-75
2023/08/08 01:53:00;;;;;;;6.70;6.15;;;20.40;99.90;;;;;;5225814;28;20457;-73
2023/08/08 01:55:31;;;;;;;7.10;6.40;;;20.50;99.90;;;;;;5225674;28;20023;-74
2023/08/08 01:58:02;;;;;;;6.97;6.38;;;20.40;99.90;;;;;;5225720;28;20039;-74
2023/08/08 02:00:32;;;;;;;8.82;7.10;;;20.40;99.90;;;;;;5225516;28;20041;-74
2023/08/08 02:03:04;;;;;;;7.22;6.53;;;20.30;99.90;;;;;;5224267;28;20041;-73
2023/08/08 02:05:35;;;;;;;8.15;6.60;;;20.20;99.90;;;;;;5225662;28;20096;-74
2023/08/08 02:08:06;;;;;;;7.50;6.93;;;20.30;99.90;;;;;;5226066;28;20107;-73
2023/08/08 03:09:09;;;;;;;8.13;7.32;;;20.00;99.90;;;;;;5286390;27;20423;-73
2023/08/08 03:11:41;;;;;;;7.45;6.78;;;20.40;99.90;;;;;;5286564;28;20024;-72
2023/08/08 03:14:12;;;;;;;7.63;6.88;;;20.30;99.90;;;;;;5286582;28;20055;-73
2023/08/08 03:16:43;;;;;;;8.52;7.63;;;20.40;99.90;;;;;;5286213;28;20027;-74
2023/08/08 03:19:13;;;;;;;7.72;7.13;;;20.30;99.90;;;;;;5286052;28;20024;-73
2023/08/08 03:21:44;;;;;;;8.45;7.75;;;20.30;99.90;;;;;;5270303;28;20021;-72
2023/08/08 03:24:15;;;;;;;19.17;8.20;;;20.50;99.90;;;;;;5265032;28;20154;-72
2023/08/08 03:26:46;;;;;;;8.75;7.95;;;20.50;99.90;;;;;;5265893;28;20107;-72
2023/08/08 03:29:17;;;;;;;9.20;8.30;;;20.60;99.90;;;;;;5275342;28;20482;-72
2023/08/08 03:31:48;;;;;;;10.52;9.63;;;20.60;99.90;;;;;;5284784;28;20020;-72
2023/08/08 03:34:18;;;;;;;8.98;8.20;;;20.70;99.90;;;;;;5285898;28;20055;-73
2023/08/08 03:36:50;;;;;;;11.98;7.85;;;20.80;99.90;;;;;;5278113;28;20032;-73
2023/08/08 03:39:21;;;;;;;8.43;7.55;;;20.90;99.90;;;;;;5263232;28;20036;-72
2023/08/08 03:41:52;;;;;;;8.80;8.00;;;20.90;99.90;;;;;;5261575;28;20734;-73
2023/08/08 03:44:23;;;;;;;11.43;8.05;;;21.00;99.90;;;;;;5250442;28;20032;-74
2023/08/08 03:46:54;;;;;;;16.50;8.82;;;21.00;99.90;;;;;;5261968;28;20020;-73
2023/08/08 03:49:25;;;;;;;64.95;10.80;;;21.10;99.90;;;;;;5261426;28;20032;-74
2023/08/08 03:51:56;;;;;;;19.38;8.02;;;21.20;99.90;;;;;;5262605;28;20340;-76
2023/08/08 03:54:27;;;;;;;23.23;9.35;;;21.20;99.90;;;;;;5262523;28;20032;-74
2023/08/08 03:56:58;;;;;;;24.00;9.30;;;21.30;99.90;;;;;;5262629;28;20089;-73
2023/08/08 03:59:29;;;;;;;13.43;8.63;;;21.30;99.90;;;;;;5261386;28;20028;-74
2023/08/08 04:01:59;;;;;;;14.30;9.60;;;21.40;99.90;;;;;;5263722;28;20062;-74
2023/08/08 04:04:30;;;;;;;12.48;9.70;;;21.50;99.90;;;;;;5263660;28;20033;-73
2023/08/08 04:07:01;;;;;;;10.15;9.18;;;21.50;99.90;;;;;;5263320;28;20071;-73
2023/08/08 04:09:32;;;;;;;14.05;10.15;;;21.50;99.90;;;;;;5252726;28;20028;-73
2023/08/08 04:12:03;;;;;;;12.52;10.25;;;21.70;99.90;;;;;;5246436;28;20016;-73
2023/08/08 04:14:34;;;;;;;11.10;9.80;;;21.70;99.90;;;;;;5249606;28;20025;-73
2023/08/08 04:17:05;;;;;;;11.95;9.65;;;22.00;99.90;;;;;;5248743;28;20044;-74
2023/08/08 04:19:36;;;;;;;10.50;9.38;;;22.20;99.90;;;;;;5248593;28;20036;-73
2023/08/08 04:22:07;;;;;;;10.75;9.63;;;22.10;99.90;;;;;;5248761;28;20021;-74
2023/08/08 04:24:38;;;;;;;11.57;10.48;;;22.30;99.90;;;;;;5248621;28;20029;-73
2023/08/08 04:27:10;;;;;;;11.43;10.32;;;22.50;99.90;;;;;;5247197;28;20047;-73
2023/08/08 04:29:40;;;;;;;12.93;10.13;;;22.50;99.90;;;;;;5248544;28;20033;-73
2023/08/08 04:32:11;;;;;;;15.05;9.40;;;22.50;99.90;;;;;;5248251;28;20032;-73
2023/08/08 04:34:42;;;;;;;9.55;7.90;;;22.60;99.90;;;;;;5249369;28;20039;-73
2023/08/08 04:37:13;;;;;;;11.32;7.68;;;22.80;99.90;;;;;;5247728;28;20032;-73
2023/08/08 04:39:44;;;;;;;7.43;6.60;;;22.80;99.90;;;;;;5247681;28;20033;-74
2023/08/08 04:42:15;;;;;;;6.05;5.45;;;22.90;99.90;;;;;;5247705;28;20016;-73
2023/08/08 04:44:46;;;;;;;5.78;5.28;;;23.00;99.90;;;;;;5247981;28;20582;-74
2023/08/08 04:47:17;;;;;;;6.45;4.43;;;23.20;99.90;;;;;;5247618;28;20024;-74
2023/08/08 04:49:48;;;;;;;4.55;4.10;;;23.30;99.90;;;;;;5246726;28;20025;-73
2023/08/08 04:52:19;;;;;;;6.13;4.10;;;23.40;99.90;;;;;;5248057;28;20028;-73
2023/08/08 04:54:50;;;;;;;5.28;3.88;;;23.40;99.90;;;;;;5247672;28;20059;-73
2023/08/08 04:57:21;;;;;;;9.10;4.30;;;23.50;99.90;;;;;;5248494;28;20055;-73
2023/08/08 05:11:29;;;;;;;6.55;3.90;;;23.70;99.90;;;;;;5307604;27;20895;-75
2023/08/08 05:26:42;;;;;;;7.88;5.68;;;24.20;99.90;;;;;;5306182;27;20397;-74
2023/08/08 05:29:13;;;;;;;8.85;5.78;;;24.60;99.90;;;;;;5294977;27;20407;-74
2023/08/08 05:31:44;;;;;;;6.90;4.35;;;24.70;99.90;;;;;;5285101;28;20020;-74
2023/08/08 05:34:15;;;;;;;10.35;4.68;;;24.80;99.90;;;;;;5266704;28;20449;-74
2023/08/08 05:36:46;;;;;;;7.47;4.80;;;24.80;99.90;;;;;;5284923;28;20020;-75
2023/08/08 05:39:17;;;;;;;8.65;4.93;;;24.80;99.90;;;;;;5285640;28;20028;-76
2023/08/08 05:41:47;;;;;;;6.20;4.45;;;24.90;99.90;;;;;;5286028;28;20024;-78
2023/08/08 05:44:18;;;;;;;9.07;4.20;;;25.00;99.90;;;;;;5293872;28;20050;-81
2023/08/08 05:46:49;;;;;;;5.70;4.97;;;25.00;99.90;;;;;;5285493;28;20012;-73
2023/08/08 05:49:20;;;;;;;11.90;4.03;;;25.10;99.90;;;;;;5284634;28;20050;-73
2023/08/08 05:51:51;;;;;;;7.18;4.30;;;25.10;99.90;;;;;;5284605;28;20020;-74
2023/08/08 05:54:22;;;;;;;5.65;4.10;;;25.00;99.90;;;;;;5284333;28;20046;-74
2023/08/08 05:56:53;;;;;;;5.78;4.28;;;25.10;99.90;;;;;;5284134;28;20032;-74
2023/08/08 05:59:24;;;;;;;7.82;4.80;;;25.10;99.90;;;;;;5283853;28;20540;-75
2023/08/08 06:01:55;;;;;;;7.30;4.88;;;25.00;99.90;;;;;;5284188;28;20024;-73
2023/08/08 06:04:26;;;;;;;10.05;4.38;;;25.30;99.90;;;;;;5285679;28;20020;-74
2023/08/08 06:06:57;;;;;;;5.03;4.55;;;25.20;99.90;;;;;;5285539;28;20012;-77
2023/08/08 06:09:28;;;;;;;8.65;4.95;;;25.30;99.90;;;;;;5284970;28;20032;-74
2023/08/08 06:11:58;;;;;;;13.30;5.45;;;25.30;99.90;;;;;;5283658;28;20028;-74
2023/08/08 06:14:31;;;;;;;9.27;7.25;;;25.20;99.90;;;;;;5283433;28;20081;-75
2023/08/08 06:17:01;;;;;;;9.55;5.32;;;25.30;99.90;;;;;;5283732;28;20059;-74
2023/08/08 06:19:32;;;;;;;11.95;8.73;;;25.30;99.90;;;;;;5283974;28;20051;-73
2023/08/08 06:22:03;;;;;;;8.82;6.72;;;25.50;99.90;;;;;;5283819;28;20027;-73
2023/08/08 06:24:34;;;;;;;12.43;8.90;;;25.40;99.90;;;;;;5283575;28;20044;-74
2023/08/08 06:27:05;;;;;;;9.07;7.55;;;25.20;99.90;;;;;;5271784;28;20028;-74
2023/08/08 06:29:36;;;;;;;11.23;8.13;;;25.30;99.90;;;;;;5270777;28;20035;-74
2023/08/08 06:32:07;;;;;;;18.70;8.60;;;25.40;99.90;;;;;;5270888;28;20043;-73
2023/08/08 06:34:38;;;;;;;9.90;8.98;;;25.40;99.90;;;;;;5269589;28;20074;-74
2023/08/08 06:37:09;;;;;;;17.88;10.50;;;25.30;99.90;;;;;;5270531;28;20474;-74
2023/08/08 06:39:41;;;;;;;11.30;10.27;;;25.50;99.90;;;;;;5270610;28;20367;-74
2023/08/08 06:42:12;;;;;;;13.30;11.85;;;25.60;99.90;;;;;;5270720;28;20476;-76
2023/08/08 06:44:44;;;;;;;13.52;12.20;;;25.50;99.90;;;;;;5270601;28;20040;-74
2023/08/08 06:47:15;;;;;;;14.68;13.32;;;25.60;99.90;;;;;;5270525;28;20025;-79
2023/08/08 06:49:46;;;;;;;14.05;12.93;;;25.60;99.90;;;;;;5270618;28;20027;-74
2023/08/08 06:52:16;;;;;;;21.23;14.50;;;25.70;99.90;;;;;;5270606;28;20040;-74
2023/08/08 06:54:47;;;;;;;15.30;14.25;;;25.80;99.90;;;;;;5270122;28;20039;-73
2023/08/08 06:57:18;;;;;;;14.57;12.95;;;25.80;99.90;;;;;;5269197;28;20032;-74
2023/08/08 06:59:50;;;;;;;15.82;14.73;;;25.80;99.90;;;;;;5267969;28;20040;-74
2023/08/08 07:02:21;;;;;;;14.95;13.43;;;25.70;99.90;;;;;;5269071;28;20483;-74
2023/08/08 07:04:52;;;;;;;16.45;15.15;;;25.60;99.90;;;;;;5269003;28;20073;-76
2023/08/08 07:07:23;;;;;;;16.30;14.73;;;25.90;99.90;;;;;;5269013;28;20022;-74
2023/08/08 07:09:54;;;;;;;15.10;13.52;;;25.80;99.90;;;;;;5269084;28;20021;-74
2023/08/08 07:12:25;;;;;;;17.23;15.43;;;26.00;99.90;;;;;;5269956;28;20031;-74
2023/08/08 07:14:56;;;;;;;14.70;13.52;;;26.00;99.90;;;;;;5268888;28;20028;-74
2023/08/08 07:17:27;;;;;;;14.27;12.55;;;26.20;99.90;;;;;;5270176;28;20042;-74
2023/08/08 07:19:58;;;;;;;11.65;8.13;;;26.20;99.90;;;;;;5269814;28;20562;-74
2023/08/08 07:22:29;;;;;;;8.13;7.25;;;26.00;99.90;;;;;;5269951;28;20083;-74
2023/08/08 07:25:00;;;;;;;10.27;7.43;;;25.90;99.90;;;;;;5269699;28;20122;-79
2023/08/08 07:27:30;;;;;;;12.25;10.13;;;25.80;99.90;;;;;;5269893;28;20110;-74
2023/08/08 07:30:02;;;;;;;12.43;11.05;;;25.60;99.90;;;;;;5269804;28;20039;-74
2023/08/08 07:32:34;;;;;;;12.15;10.82;;;25.70;99.90;;;;;;5270049;28;20016;-79
2023/08/08 07:35:08;;;;;;;13.98;9.50;;;25.80;99.90;;;;;;5269709;28;20048;-74
2023/08/08 07:37:39;;;;;;;25.45;9.27;;;25.80;99.90;;;;;;5268726;28;20475;-74
2023/08/08 07:40:20;;;;;;;14.32;9.50;;;26.00;99.90;;;;;;5269560;28;20039;-73
2023/08/08 07:42:51;;;;;;;12.27;6.78;;;26.40;99.90;;;;;;5269539;28;20056;-74
2023/08/08 07:45:22;;;;;;;11.30;5.07;;;26.40;99.90;;;;;;5269398;28;20028;-74
2023/08/08 07:47:53;;;;;;;10.95;4.13;;;26.60;99.90;;;;;;5269370;28;20031;-74
2023/08/08 07:50:24;;;;;;;8.70;3.90;;;26.50;99.90;;;;;;5267303;28;20024;-74
2023/08/08 07:52:55;;;;;;;4.72;3.95;;;26.30;99.90;;;;;;5268850;28;20448;-74
2023/08/08 07:55:26;;;;;;;7.72;4.90;;;26.40;99.90;;;;;;5267961;28;20048;-74
2023/08/08 07:57:56;;;;;;;9.13;4.28;;;26.30;99.90;;;;;;5267975;28;20028;-74
2023/08/08 08:00:27;;;;;;;14.07;4.22;;;26.20;99.90;;;;;;5268258;28;20615;-73
2023/08/08 08:02:58;;;;;;;9.32;3.97;;;26.30;99.90;;;;;;5268065;28;20421;-72
2023/08/08 08:05:29;;;;;;;9.65;4.72;;;26.40;99.90;;;;;;5268104;28;20024;-74
2023/08/08 08:08:00;;;;;;;9.25;4.25;;;26.50;99.90;;;;;;5268510;28;20194;-77
2023/08/08 08:10:31;;;;;;;9.75;4.50;;;26.40;99.90;;;;;;5269120;28;20050;-73
2023/08/08 08:13:02;;;;;;;6.68;4.85;;;26.50;99.90;;;;;;5269092;28;20060;-73
2023/08/08 08:15:33;;;;;;;12.25;4.15;;;26.60;99.90;;;;;;5267554;28;20036;-73
2023/08/08 08:18:04;;;;;;;10.32;3.97;;;26.60;99.90;;;;;;5268572;28;20447;-78
2023/08/08 08:20:35;;;;;;;8.35;3.55;;;26.50;99.90;;;;;;5268884;28;20035;-77
2023/08/08 08:23:05;;;;;;;8.90;3.45;;;26.30;99.90;;;;;;5267542;28;20020;-72
2023/08/08 08:25:36;;;;;;;14.00;4.07;;;26.50;99.90;;;;;;5267323;28;20070;-73
2023/08/08 08:28:07;;;;;;;9.18;4.15;;;26.70;99.90;;;;;;5268669;28;20383;-73
2023/08/08 08:30:38;;;;;;;17.30;5.03;;;26.70;99.90;;;;;;5268636;28;20410;-77
2023/08/08 08:33:10;;;;;;;9.02;4.63;;;26.60;99.90;;;;;;5268715;28;20027;-75
2023/08/08 08:35:41;;;;;;;8.27;4.85;;;26.70;99.90;;;;;;5268602;28;20043;-74
2023/08/08 08:38:12;;;;;;;4.78;4.28;;;26.50;99.90;;;;;;5267328;28;20020;-73
2023/08/08 08:40:45;;;;;;;11.93;5.10;;;26.90;99.90;;;;;;5267354;28;20089;-73
2023/08/08 08:43:16;;;;;;;14.27;5.55;;;27.00;99.90;;;;;;5268484;28;20041;-78
2023/08/08 08:45:52;;;;;;;6.55;4.55;;;26.80;99.90;;;;;;5267853;28;20027;-73
2023/08/08 08:48:24;;;;;;;7.18;4.20;;;26.90;99.90;;;;;;5268138;28;20069;-73
2023/08/08 08:50:55;;;;;;;13.20;4.13;;;26.80;99.90;;;;;;5266903;28;20467;-73
2023/08/08 08:53:26;;;;;;;8.15;4.68;;;26.60;99.90;;;;;;5267168;28;20066;-78
2023/08/08 08:55:57;;;;;;;13.45;4.53;;;26.70;99.90;;;;;;5266613;28;20079;-75
2023/08/08 08:58:28;;;;;;;8.23;4.45;;;26.60;99.90;;;;;;5285621;28;20016;-73
2023/08/08 09:01:00;;;;;;;10.85;5.45;;;26.60;99.90;;;;;;5287459;28;20031;-73
2023/08/08 09:03:31;;;;;;;7.28;4.88;;;26.80;99.90;;;;;;5287758;28;20024;-74
2023/08/08 09:06:04;;;;;;;5.93;4.97;;;27.00;99.90;;;;;;5289391;28;20035;-73
2023/08/08 09:08:35;;;;;;;5.50;4.28;;;26.60;99.90;;;;;;5289273;28;20194;-73
2023/08/08 09:11:06;;;;;;;9.70;5.10;;;26.60;99.90;;;;;;5289145;28;20119;-78
2023/08/08 09:13:38;;;;;;;11.45;4.03;;;26.80;99.90;;;;;;5289148;28;20553;-79
2023/08/08 09:16:11;;;;;;;10.30;4.10;;;26.70;99.90;;;;;;5288946;28;20035;-73
2023/08/08 09:18:42;;;;;;;12.38;4.78;;;26.50;99.90;;;;;;5289236;28;20506;-74
2023/08/08 09:21:15;;;;;;;9.23;4.40;;;26.30;99.90;;;;;;5288940;28;20115;-73
2023/08/08 09:23:46;;;;;;;9.07;4.60;;;26.50;99.90;;;;;;5289280;28;20110;-73
2023/08/08 09:26:17;;;;;;;14.50;4.60;;;26.30;99.90;;;;;;5288928;28;20049;-73
2023/08/08 09:28:48;;;;;;;9.55;4.47;;;26.50;99.90;;;;;;5289243;28;20122;-78
2023/08/08 09:31:19;;;;;;;8.98;4.15;;;26.60;99.90;;;;;;5288972;28;20020;-78
2023/08/08 09:33:51;;;;;;;8.82;4.47;;;26.30;99.90;;;;;;5289005;28;20028;-73
2023/08/08 09:36:23;;;;;;;11.40;4.65;;;26.00;99.90;;;;;;5288822;28;20082;-74
2023/08/08 09:38:55;;;;;;;9.52;4.45;;;25.90;99.90;;;;;;5288995;28;20069;-73
2023/08/08 09:41:26;;;;;;;9.13;4.63;;;26.00;99.90;;;;;;5288335;28;20067;-77
2023/08/08 09:44:00;;;;;;;8.57;4.80;;;26.30;99.90;;;;;;5288645;28;20479;-74
2023/08/08 09:46:31;;;;;;;9.32;4.30;;;26.40;99.90;;;;;;5287450;28;20032;-74
2023/08/08 09:49:03;;;;;;;12.70;5.47;;;26.70;99.90;;;;;;5287807;28;20420;-73
2023/08/08 09:51:34;;;;;;;13.00;6.00;;;26.30;99.90;;;;;;5285161;28;20054;-74
2023/08/08 09:54:08;;;;;;;10.50;4.93;;;26.50;99.90;;;;;;5287465;28;20031;-74
2023/08/08 09:56:40;;;;;;;8.73;4.50;;;26.40;99.90;;;;;;5280190;28;20055;-73
2023/08/08 09:59:12;;;;;;;10.15;5.07;;;26.50;99.90;;;;;;5275494;28;20020;-74
2023/08/08 10:01:47;;;;;;;8.45;4.28;;;26.20;99.90;;;;;;5277017;28;20031;-75
2023/08/08 10:04:18;;;;;;;10.40;4.57;;;26.40;99.90;;;;;;5271030;28;20052;-73
2023/08/08 10:06:49;;;;;;;10.05;4.75;;;26.30;99.90;;;;;;5270811;28;20040;-72
2023/08/08 10:09:21;;;;;;;7.25;4.78;;;26.60;99.90;;;;;;5271305;28;20062;-77
2023/08/08 10:11:54;;;;;;;10.82;5.20;;;26.70;99.90;;;;;;5271234;28;20115;-73
2023/08/08 10:14:34;;;;;;;12.73;4.72;;;26.70;99.90;;;;;;5271300;28;20085;-72
2023/08/08 10:17:06;;;;;;;11.90;5.03;;;26.50;99.90;;;;;;5271068;28;20032;-73
2023/08/08 10:19:38;;;;;;;14.75;4.72;;;26.60;99.90;;;;;;5271336;28;20559;-76
2023/08/08 10:22:09;;;;;;;7.28;4.82;;;26.50;99.90;;;;;;5271013;28;20028;-72
2023/08/08 10:24:40;;;;;;;8.38;3.65;;;26.20;99.90;;;;;;5270701;28;20040;-72
2023/08/08 10:27:11;;;;;;;10.07;4.35;;;26.40;99.90;;;;;;5270903;28;20399;-72
2023/08/08 10:29:46;;;;;;;9.20;4.88;;;26.60;99.90;;;;;;5270867;28;20417;-74
2023/08/08 10:32:24;;;;;;;11.70;4.30;;;26.80;99.90;;;;;;5271155;28;20054;-73
2023/08/08 10:34:58;;;;;;;8.80;3.70;;;26.30;99.90;;;;;;5271286;28;20048;-79
2023/08/08 10:37:29;;;;;;;10.38;4.93;;;26.80;99.90;;;;;;5270590;28;20536;-74
2023/08/08 10:40:05;;;;;;;7.07;4.60;;;26.60;99.90;;;;;;5270493;28;20081;-74
2023/08/08 10:42:45;;;;;;;6.45;4.72;;;26.50;99.90;;;;;;5269966;28;20111;-73
2023/08/08 10:45:16;;;;;;;6.75;3.85;;;26.40;99.90;;;;;;5269664;28;20124;-74
2023/08/08 10:47:47;;;;;;;9.38;4.68;;;26.60;99.90;;;;;;5269505;28;20028;-74
2023/08/08 10:50:23;;;;;;;10.82;5.45;;;27.00;99.90;;;;;;5269841;28;20503;-74
2023/08/08 10:52:55;;;;;;;8.90;5.63;;;26.80;99.90;;;;;;5269737;28;20489;-73
2023/08/08 10:55:31;;;;;;;5.78;4.57;;;27.00;99.90;;;;;;5269306;28;20479;-75
2023/08/08 10:58:15;;;;;;;6.13;4.32;;;26.80;99.90;;;;;;5270637;28;20035;-73
2023/08/08 11:00:46;;;;;;;6.88;4.47;;;26.90;99.90;;;;;;5270324;28;20031;-73
2023/08/08 11:03:17;;;;;;;6.53;5.93;;;26.80;99.90;;;;;;5270580;28;20112;-74
2023/08/08 11:05:50;;;;;;;8.90;4.63;;;26.90;99.90;;;;;;5270470;28;20046;-76
2023/08/08 11:08:22;;;;;;;6.97;5.25;;;26.50;99.90;;;;;;5270531;28;20032;-74
2023/08/08 11:10:53;;;;;;;7.32;4.85;;;26.60;99.90;;;;;;5269932;28;20024;-78
2023/08/08 11:13:24;;;;;;;7.43;4.88;;;26.70;99.90;;;;;;5269916;28;20027;-74
2023/08/08 11:15:55;;;;;;;14.52;6.20;;;27.00;99.90;;;;;;5269707;28;20059;-78
2023/08/08 11:18:27;;;;;;;13.32;6.85;;;26.90;99.90;;;;;;5269745;28;20013;-78
2023/08/08 11:20:58;;;;;;;10.77;6.15;;;26.90;99.90;;;;;;5268533;28;20106;-74
2023/08/08 11:23:29;;;;;;;11.27;6.32;;;26.80;99.90;;;;;;5269553;28;20149;-73
2023/08/08 11:26:01;;;;;;;22.58;7.03;;;27.10;99.90;;;;;;5269241;28;20052;-74
2023/08/08 11:28:32;;;;;;;6.32;5.75;;;27.10;99.90;;;;;;5264301;28;20390;-76
2023/08/08 11:31:03;;;;;;;8.27;6.40;;;26.70;99.90;;;;;;5269333;28;20031;-78
2023/08/08 11:33:34;;;;;;;8.90;6.35;;;27.00;99.90;;;;;;5268993;28;20039;-74
2023/08/08 11:36:05;;;;;;;11.20;6.45;;;27.20;99.90;;;;;;5269183;28;20036;-74
2023/08/08 11:38:37;;;;;;;13.05;7.28;;;27.20;99.90;;;;;;5268599;28;20024;-74
2023/08/08 11:41:07;;;;;;;8.82;7.65;;;27.20;99.90;;;;;;5268348;28;20045;-74
2023/08/08 11:43:41;;;;;;;10.40;8.30;;;27.30;99.90;;;;;;5268779;28;20028;-74
2023/08/08 11:46:15;;;;;;;10.60;7.10;;;27.20;99.90;;;;;;5263468;28;20032;-74
2023/08/08 11:48:48;;;;;;;7.80;6.63;;;27.00;99.90;;;;;;5268811;28;20024;-74
2023/08/08 11:51:19;;;;;;;7.85;6.63;;;27.00;99.90;;;;;;5268637;28;20458;-74
2023/08/08 11:53:52;;;;;;;11.02;7.20;;;27.20;99.90;;;;;;5269415;28;20108;-78
2023/08/08 11:56:23;;;;;;;9.60;5.68;;;27.10;99.90;;;;;;5269039;28;20032;-74
2023/08/08 11:58:55;;;;;;;8.57;6.03;;;27.40;99.90;;;;;;5269440;28;20031;-74
2023/08/08 12:01:27;;;;;;;7.38;5.72;;;27.40;99.90;;;;;;5269763;28;20047;-74
2023/08/08 12:03:58;;;;;;;6.85;6.15;;;27.30;99.90;;;;;;5269190;28;20414;-73
2023/08/08 12:06:29;;;;;;;7.75;5.68;;;27.20;99.90;;;;;;5268915;28;20056;-73
2023/08/08 12:09:02;;;;;;;10.25;5.68;;;27.40;99.90;;;;;;5269232;28;20031;-73
2023/08/08 12:11:39;;;;;;;5.57;4.70;;;27.30;99.90;;;;;;5269247;28;20377;-73
2023/08/08 12:14:10;;;;;;;8.30;4.60;;;27.30;99.90;;;;;;5268906;28;20402;-73
2023/08/08 12:16:43;;;;;;;9.10;4.65;;;27.50;99.90;;;;;;5268613;28;20085;-73
2023/08/08 12:19:17;;;;;;;9.20;4.55;;;27.30;99.90;;;;;;5269071;28;20123;-74
2023/08/08 12:21:48;;;;;;;5.35;4.28;;;27.40;99.90;;;;;;5268998;28;20024;-74
2023/08/08 12:24:19;;;;;;;9.32;4.15;;;27.20;99.90;;;;;;5268305;28;20570;-77
2023/08/08 12:26:50;;;;;;;9.43;3.92;;;27.40;99.90;;;;;;5269030;28;20487;-73
2023/08/08 12:29:21;;;;;;;8.95;4.00;;;27.40;99.90;;;;;;5268046;28;20490;-75
2023/08/08 12:31:51;;;;;;;7.47;3.80;;;27.30;99.90;;;;;;5268600;28;20083;-73
2023/08/08 12:34:22;;;;;;;8.05;4.22;;;27.20;99.90;;;;;;5267745;28;20051;-75
2023/08/08 12:36:53;;;;;;;8.38;4.13;;;27.40;99.90;;;;;;5267580;28;20038;-74
2023/08/08 12:39:24;;;;;;;9.07;5.20;;;27.40;99.90;;;;;;5267710;28;20008;-75
2023/08/08 12:41:56;;;;;;;7.78;3.97;;;27.30;99.90;;;;;;5267645;28;20024;-74
2023/08/08 12:44:26;;;;;;;9.68;3.97;;;27.50;99.90;;;;;;5267386;28;20058;-74
2023/08/08 12:46:57;;;;;;;7.03;4.00;;;27.40;99.90;;;;;;5267221;28;20047;-73
2023/08/08 12:49:28;;;;;;;5.60;4.10;;;27.50;99.90;;;;;;5268533;28;20065;-74
2023/08/08 12:51:59;;;;;;;5.60;4.05;;;27.60;99.90;;;;;;5268562;28;20024;-73
2023/08/08 12:54:30;;;;;;;9.90;4.70;;;27.60;99.90;;;;;;5268216;28;20040;-77
2023/08/08 12:57:01;;;;;;;8.25;4.72;;;27.60;99.90;;;;;;5268284;28;20025;-73
2023/08/08 12:59:32;;;;;;;6.05;4.35;;;27.50;99.90;;;;;;5268510;28;20024;-73
2023/08/08 13:02:03;;;;;;;8.77;4.38;;;27.60;99.90;;;;;;5268403;28;20107;-73
2023/08/08 13:04:34;;;;;;;8.27;4.50;;;27.40;99.90;;;;;;5268311;28;20349;-73
2023/08/08 13:07:05;;;;;;;7.65;4.20;;;27.30;99.90;;;;;;5268539;28;20022;-73
2023/08/08 13:09:35;;;;;;;7.13;3.83;;;27.60;99.90;;;;;;5268264;28;20054;-73
2023/08/08 13:12:06;;;;;;;6.55;4.20;;;27.50;99.90;;;;;;5268310;28;20033;-73
2023/08/08 13:14:37;;;;;;;5.57;4.22;;;27.30;99.90;;;;;;5267986;28;20444;-73
2023/08/08 13:17:09;;;;;;;7.60;4.60;;;27.40;99.90;;;;;;5268121;28;20036;-74
2023/08/08 13:19:40;;;;;;;6.60;4.30;;;27.40;99.90;;;;;;5268184;28;20031;-73
2023/08/08 13:22:12;;;;;;;5.93;4.45;;;27.40;99.90;;;;;;5268333;28;20024;-75
2023/08/08 13:24:43;;;;;;;6.03;4.47;;;27.40;99.90;;;;;;5267984;28;20043;-74
2023/08/08 13:27:14;;;;;;;7.78;4.15;;;27.30;99.90;;;;;;5267326;28;20061;-73
2023/08/08 13:29:44;;;;;;;5.90;4.30;;;27.10;99.90;;;;;;5267263;28;20035;-74
2023/08/08 13:32:16;;;;;;;7.82;4.18;;;27.50;99.90;;;;;;5266790;28;20013;-76
2023/08/08 13:34:47;;;;;;;7.85;4.43;;;27.50;99.90;;;;;;5266845;28;20376;-74
2023/08/08 13:37:18;;;;;;;7.57;4.25;;;27.40;99.90;;;;;;5269593;28;20111;-76
2023/08/08 13:39:49;;;;;;;8.15;4.80;;;27.40;99.90;;;;;;5271233;28;20028;-75
2023/08/08 13:42:20;;;;;;;5.22;4.65;;;27.30;99.90;;;;;;5271821;28;20027;-74
2023/08/08 13:44:51;;;;;;;8.30;4.15;;;27.20;99.90;;;;;;5271668;28;20345;-76
2023/08/08 13:47:22;;;;;;;5.85;4.70;;;27.30;99.90;;;;;;5272015;28;20028;-73
2023/08/08 13:49:53;;;;;;;6.18;4.30;;;27.00;99.90;;;;;;5272025;28;20487;-74
2023/08/08 13:52:24;;;;;;;10.65;4.50;;;27.20;99.90;;;;;;5271953;28;20054;-73
2023/08/08 13:54:55;;;;;;;7.43;4.90;;;27.10;99.90;;;;;;5271729;28;20076;-73
2023/08/08 13:57:26;;;;;;;7.10;5.05;;;27.00;99.90;;;;;;5271731;28;20026;-73
2023/08/08 13:59:57;;;;;;;7.28;4.70;;;27.20;99.90;;;;;;5272003;28;20418;-75
2023/08/08 14:02:29;;;;;;;7.40;4.75;;;27.20;99.90;;;;;;5271806;28;20090;-74
2023/08/08 14:05:00;;;;;;;7.72;4.95;;;27.00;99.90;;;;;;5271579;28;20464;-73
2023/08/08 14:07:31;;;;;;;6.18;4.40;;;27.10;99.90;;;;;;5271877;28;20077;-73
2023/08/08 14:10:03;;;;;;;7.20;5.00;;;27.10;99.90;;;;;;5271600;28;20376;-74
2023/08/08 14:12:34;;;;;;;10.70;6.03;;;27.10;99.90;;;;;;5271634;28;20024;-73
2023/08/08 14:15:06;;;;;;;9.73;4.95;;;27.10;99.90;;;;;;5271223;28;20032;-74
2023/08/08 14:17:37;;;;;;;7.57;4.90;;;27.00;99.90;;;;;;5271294;28;20020;-73
2023/08/08 14:20:09;;;;;;;8.48;4.72;;;27.00;99.90;;;;;;5271646;28;20490;-74
2023/08/08 14:22:44;;;;;;;6.05;5.32;;;27.10;99.90;;;;;;5270599;28;20020;-73
2023/08/08 14:25:15;;;;;;;7.25;5.72;;;27.00;99.90;;;;;;5270085;28;20044;-74
2023/08/08 14:27:46;;;;;;;8.65;5.57;;;27.00;99.90;;;;;;5269557;28;20020;-75